createdAt,value
2023-08-13T00:01:01.528Z,84.38
2023-08-13T00:03:30.663Z,84.40
2023-08-13T00:05:58.365Z,84.41
2023-08-13T00:08:26.006Z,84.50
2023-08-13T00:10:53.680Z,84.59
2023-08-13T00:13:21.312Z,84.40
2023-08-13T00:15:49.067Z,83.90
2023-08-13T00:18:16.683Z,84.33
2023-08-13T00:20:45.674Z,83.78
2023-08-13T00:23:13.354Z,84.33
2023-08-13T00:25:41.056Z,84.24
2023-08-13T00:28:08.689Z,83.93
2023-08-13T00:30:36.697Z,83.74
2023-08-13T00:33:04.517Z,83.59
2023-08-13T00:35:32.140Z,84.28
2023-08-13T00:38:01.133Z,83.99
2023-08-13T00:40:29.458Z,84.13
2023-08-13T00:42:57.183Z,84.15
2023-08-13T00:45:25.277Z,84.66
2023-08-13T00:47:53.070Z,84.34
2023-08-13T00:50:20.809Z,84.24
2023-08-13T00:52:48.458Z,83.86
2023-08-13T00:55:17.397Z,84.08
2023-08-13T00:57:45.170Z,84.23
2023-08-13T01:00:14.479Z,85.41
2023-08-13T01:02:42.155Z,86.16
2023-08-13T01:05:10.959Z,86.27
2023-08-13T01:07:44.016Z,86.17
2023-08-13T01:10:16.375Z,85.87
2023-08-13T01:12:49.401Z,85.59
2023-08-13T01:15:19.766Z,85.46
2023-08-13T01:17:50.506Z,84.92
2023-08-13T01:20:19.423Z,85.48
2023-08-13T01:22:49.814Z,85.99
2023-08-13T01:25:18.869Z,85.80
2023-08-13T01:27:51.347Z,86.17
2023-08-13T01:30:22.719Z,86.53
2023-08-13T01:32:53.436Z,86.59
2023-08-13T01:35:22.196Z,86.81
2023-08-13T01:37:51.716Z,86.60
2023-08-13T01:40:19.524Z,86.84
2023-08-13T01:42:47.156Z,86.43
2023-08-13T01:45:14.833Z,86.23
2023-08-13T01:47:42.742Z,86.32
2023-08-13T01:50:11.133Z,86.14
2023-08-13T01:52:38.791Z,85.74
2023-08-13T01:55:09.533Z,86.40
2023-08-13T01:57:37.166Z,87.07
2023-08-13T02:00:08.064Z,87.30
2023-08-13T02:02:35.984Z,87.88
2023-08-13T02:05:03.856Z,87.88
2023-08-13T02:07:31.614Z,87.62
2023-08-13T02:09:59.253Z,87.80
2023-08-13T02:12:28.261Z,87.10
2023-08-13T02:14:55.911Z,87.59
2023-08-13T02:17:23.885Z,87.03
2023-08-13T02:19:51.681Z,86.70
2023-08-13T02:22:19.349Z,86.90
2023-08-13T02:24:46.960Z,87.11
2023-08-13T02:27:14.598Z,87.39
2023-08-13T02:29:43.518Z,88.14
2023-08-13T02:32:11.736Z,87.05
2023-08-13T02:34:44.955Z,86.87
2023-08-13T02:37:12.758Z,87.27
2023-08-13T02:39:40.572Z,87.28
2023-08-13T02:42:08.271Z,86.62
2023-08-13T02:44:35.884Z,86.87
2023-08-13T02:47:06.028Z,87.10
2023-08-13T02:49:33.643Z,87.81
2023-08-13T02:52:01.396Z,87.54
2023-08-13T02:54:29.104Z,87.65
2023-08-13T02:56:56.730Z,87.38
2023-08-13T02:59:24.371Z,87.48
2023-08-13T03:01:52.047Z,87.56
2023-08-13T03:04:21.127Z,87.45
2023-08-13T03:06:48.802Z,87.37
2023-08-13T03:09:20.849Z,87.73
2023-08-13T03:11:48.573Z,88.24
2023-08-13T03:14:16.821Z,88.24
2023-08-13T03:16:44.602Z,88.58
2023-08-13T03:19:12.369Z,88.24
2023-08-13T03:21:43.913Z,88.31
2023-08-13T03:24:11.611Z,88.40
2023-08-13T03:26:39.541Z,88.35
2023-08-13T03:29:07.507Z,88.35
2023-08-13T03:31:35.201Z,88.60
2023-08-13T03:34:18.532Z,88.00
2023-08-13T03:36:47.752Z,88.08
2023-08-13T03:39:16.605Z,88.01
2023-08-13T03:41:44.247Z,87.99
2023-08-13T03:44:13.376Z,88.10
2023-08-13T03:46:41.602Z,87.71
2023-08-13T03:49:09.293Z,87.36
2023-08-13T03:51:36.937Z,87.44
2023-08-13T03:54:10.086Z,87.11
2023-08-13T03:56:38.135Z,87.64
2023-08-13T03:59:05.961Z,87.41
2023-08-13T04:01:34.400Z,87.46
2023-08-13T04:04:02.419Z,87.38
2023-08-13T04:06:31.246Z,86.46
2023-08-13T04:08:59.054Z,86.71
2023-08-13T04:11:28.127Z,87.35
2023-08-13T04:13:55.877Z,87.55
2023-08-13T04:16:24.273Z,86.75
2023-08-13T04:18:52.176Z,87.12
2023-08-13T04:21:22.137Z,87.10
2023-08-13T04:23:50.240Z,86.67
2023-08-13T04:26:18.841Z,86.57
2023-08-13T04:28:48.299Z,86.33
2023-08-13T04:31:18.331Z,86.70
2023-08-13T04:33:46.004Z,86.81
2023-08-13T04:36:15.363Z,87.49
2023-08-13T04:38:43.169Z,87.77
2023-08-13T04:41:11.034Z,87.93
2023-08-13T04:43:42.403Z,87.87
2023-08-13T04:46:12.124Z,87.86
2023-08-13T04:48:48.957Z,87.71
2023-08-13T04:51:21.763Z,87.72
2023-08-13T04:53:50.017Z,87.66
2023-08-13T04:56:19.603Z,87.65
2023-08-13T04:58:47.337Z,87.17
2023-08-13T05:01:16.953Z,86.65
2023-08-13T05:03:50.395Z,86.89
2023-08-13T05:06:19.538Z,88.00
2023-08-13T05:08:47.169Z,87.97
2023-08-13T05:11:15.206Z,87.44
2023-08-13T05:13:42.897Z,87.26
2023-08-13T05:16:10.998Z,87.02
2023-08-13T05:18:42.290Z,86.82
2023-08-13T05:21:10.021Z,86.97
2023-08-13T05:23:37.855Z,86.62
2023-08-13T05:26:05.615Z,87.33
2023-08-13T05:28:34.406Z,87.95
2023-08-13T05:31:04.086Z,88.17
2023-08-13T05:33:32.543Z,87.27
2023-08-13T05:36:01.905Z,87.61
2023-08-13T05:38:29.568Z,88.31
2023-08-13T05:40:57.218Z,88.01
2023-08-13T05:43:24.946Z,88.33
2023-08-13T05:45:53.414Z,88.47
2023-08-13T05:48:21.419Z,88.87
2023-08-13T05:50:49.100Z,89.63
2023-08-13T05:53:18.167Z,89.33
2023-08-13T05:55:46.283Z,89.04
2023-08-13T05:58:13.910Z,88.98
2023-08-13T06:00:42.044Z,88.68
2023-08-13T06:03:10.185Z,88.92
2023-08-13T06:05:39.940Z,88.79
2023-08-13T06:08:08.120Z,88.47
2023-08-13T06:10:37.075Z,87.83
2023-08-13T06:13:05.141Z,86.93
2023-08-13T06:15:32.772Z,86.97
2023-08-13T06:18:00.421Z,85.96
2023-08-13T06:20:28.325Z,86.20
2023-08-13T06:22:56.320Z,86.03
2023-08-13T06:25:23.982Z,85.69
2023-08-13T06:27:52.934Z,85.96
2023-08-13T06:30:20.799Z,85.74
2023-08-13T06:32:48.466Z,85.47
2023-08-13T06:35:16.482Z,85.57
2023-08-13T06:37:59.486Z,85.11
2023-08-13T06:40:29.469Z,84.87
2023-08-13T06:42:58.424Z,84.76
2023-08-13T06:45:28.023Z,84.07
2023-08-13T06:47:57.667Z,84.02
2023-08-13T06:50:25.422Z,83.52
2023-08-13T06:52:53.720Z,83.48
2023-08-13T06:55:21.313Z,83.55
2023-08-13T06:57:48.951Z,83.29
2023-08-13T07:00:22.103Z,83.41
2023-08-13T07:02:56.430Z,83.08
2023-08-13T07:05:24.182Z,82.22
2023-08-13T07:07:52.750Z,81.99
2023-08-13T07:10:20.410Z,81.30
2023-08-13T07:12:48.045Z,81.16
2023-08-13T07:15:15.786Z,80.53
2023-08-13T07:17:44.851Z,80.38
2023-08-13T07:20:15.301Z,81.10
2023-08-13T07:22:44.496Z,81.10
2023-08-13T07:25:13.421Z,80.85
2023-08-13T07:27:42.681Z,80.12
2023-08-13T07:30:11.914Z,80.00
2023-08-13T07:32:41.834Z,79.27
2023-08-13T07:35:13.293Z,79.64
2023-08-13T07:37:41.364Z,79.72
2023-08-13T07:40:12.304Z,79.22
2023-08-13T07:42:42.066Z,78.36
2023-08-13T07:45:12.230Z,77.78
2023-08-13T07:47:40.499Z,77.52
2023-08-13T07:50:09.695Z,76.52
2023-08-13T07:52:38.686Z,75.76
2023-08-13T07:55:07.624Z,76.13
2023-08-13T07:57:35.676Z,75.74
2023-08-13T08:00:03.372Z,75.52
2023-08-13T08:02:40.368Z,75.57
2023-08-13T08:05:08.762Z,75.52
2023-08-13T08:07:37.810Z,73.82
2023-08-13T08:10:06.177Z,73.01
2023-08-13T08:12:33.912Z,73.50
2023-08-13T08:15:01.532Z,73.81
2023-08-13T08:17:29.542Z,73.19
2023-08-13T08:19:57.160Z,73.09
2023-08-13T08:22:24.849Z,72.67
2023-08-13T08:24:53.935Z,72.62
2023-08-13T08:27:21.609Z,71.14
2023-08-13T08:29:49.218Z,72.01
2023-08-13T08:32:17.146Z,71.92
2023-08-13T08:34:45.706Z,72.53
2023-08-13T08:37:15.135Z,71.82
2023-08-13T08:39:42.898Z,72.19
2023-08-13T08:42:13.756Z,71.87
2023-08-13T08:44:44.191Z,72.05
2023-08-13T08:47:12.218Z,71.43
2023-08-13T08:49:39.879Z,70.67
2023-08-13T08:52:07.968Z,69.84
2023-08-13T08:54:40.436Z,69.49
2023-08-13T08:57:08.062Z,69.54
2023-08-13T08:59:37.593Z,69.46
2023-08-13T09:02:05.629Z,69.22
2023-08-13T09:04:33.379Z,68.59
2023-08-13T09:07:02.914Z,68.73
2023-08-13T09:09:31.285Z,68.08
2023-08-13T09:11:59.857Z,67.68
2023-08-13T09:14:27.807Z,65.56
2023-08-13T09:16:58.185Z,65.41
2023-08-13T09:19:27.792Z,63.42
2023-08-13T09:21:56.492Z,63.53
2023-08-13T09:24:34.691Z,61.02
2023-08-13T09:27:03.223Z,60.07
2023-08-13T09:29:32.030Z,59.79
2023-08-13T09:32:02.102Z,59.56
2023-08-13T09:34:30.955Z,58.14
2023-08-13T09:36:59.863Z,58.49
2023-08-13T09:39:29.123Z,58.01
2023-08-13T09:41:57.393Z,57.88
2023-08-13T09:44:26.311Z,57.55
2023-08-13T09:46:55.967Z,57.85
2023-08-13T09:49:25.219Z,57.80
2023-08-13T09:51:54.012Z,55.65
2023-08-13T09:54:30.675Z,54.44
2023-08-13T09:57:03.403Z,54.97
2023-08-13T09:59:34.122Z,54.49
2023-08-13T10:02:01.910Z,52.13
2023-08-13T10:04:30.944Z,52.17
2023-08-13T10:06:59.080Z,53.09
2023-08-13T10:09:27.583Z,54.81
2023-08-13T10:11:55.612Z,54.99
2023-08-13T10:14:23.268Z,53.04
2023-08-13T10:16:51.146Z,53.39
2023-08-13T10:19:20.240Z,52.15
2023-08-13T10:21:57.018Z,51.04
2023-08-13T10:24:25.662Z,48.09
2023-08-13T10:26:54.220Z,48.74
2023-08-13T10:29:22.919Z,48.27
2023-08-13T10:31:55.909Z,49.20
2023-08-13T10:34:41.628Z,50.30
2023-08-13T10:37:18.377Z,49.54
2023-08-13T10:39:47.437Z,50.93
2023-08-13T10:42:49.931Z,49.24
2023-08-13T10:45:20.120Z,45.94
2023-08-13T10:47:50.313Z,47.35
2023-08-13T10:50:23.458Z,48.47
2023-08-13T10:52:54.256Z,49.25
2023-08-13T10:55:24.297Z,49.17
2023-08-13T10:57:53.105Z,47.58
2023-08-13T11:00:23.135Z,47.00
2023-08-13T11:02:54.467Z,46.99
2023-08-13T11:05:23.249Z,46.65
2023-08-13T11:07:53.229Z,47.50
2023-08-13T11:10:22.353Z,48.23
2023-08-13T11:12:50.927Z,48.22
2023-08-13T11:15:18.798Z,47.83
2023-08-13T11:17:48.930Z,47.96
2023-08-13T11:20:19.404Z,48.82
2023-08-13T11:22:47.465Z,48.09
2023-08-13T11:25:16.798Z,45.52
2023-08-13T11:27:44.436Z,44.22
2023-08-13T11:30:12.918Z,44.84
2023-08-13T11:32:40.794Z,44.66
2023-08-13T11:35:10.827Z,45.70
2023-08-13T11:37:39.210Z,46.57
2023-08-13T11:40:10.907Z,46.90
2023-08-13T11:42:44.868Z,48.69
2023-08-13T11:45:13.399Z,49.63
2023-08-13T11:47:41.084Z,50.21
2023-08-13T11:50:19.736Z,50.00
2023-08-13T11:53:02.967Z,49.48
2023-08-13T11:55:31.252Z,48.41
2023-08-13T11:58:00.544Z,48.06
2023-08-13T12:00:28.594Z,48.56
2023-08-13T12:02:57.243Z,48.37
2023-08-13T12:05:27.044Z,48.93
2023-08-13T12:07:55.070Z,49.82
2023-08-13T12:10:22.766Z,50.42
2023-08-13T12:12:50.400Z,50.13
2023-08-13T12:15:23.050Z,49.62
2023-08-13T12:17:50.711Z,47.87
2023-08-13T12:20:18.359Z,47.95
2023-08-13T12:22:45.976Z,48.52
2023-08-13T12:25:13.685Z,48.53
2023-08-13T12:27:41.473Z,47.73
2023-08-13T12:30:09.983Z,48.30
2023-08-13T12:32:39.299Z,47.94
2023-08-13T12:35:09.796Z,48.50
2023-08-13T12:37:37.457Z,46.12
2023-08-13T12:40:05.620Z,46.56
2023-08-13T12:42:33.440Z,45.72
2023-08-13T12:45:01.754Z,47.15
2023-08-13T12:47:29.403Z,46.98
2023-08-13T12:49:58.351Z,46.28
2023-08-13T12:52:26.104Z,47.34
2023-08-13T12:54:53.989Z,46.97
2023-08-13T12:57:21.961Z,47.12
2023-08-13T12:59:49.590Z,46.88
2023-08-13T13:02:17.786Z,46.04
2023-08-13T13:04:45.744Z,46.72
2023-08-13T13:07:14.747Z,47.45
2023-08-13T13:09:42.387Z,46.71
2023-08-13T13:12:10.556Z,46.55
2023-08-13T13:14:39.078Z,45.91
2023-08-13T13:17:06.931Z,45.63
2023-08-13T13:19:34.625Z,46.86
2023-08-13T13:22:02.566Z,46.62
2023-08-13T13:24:31.508Z,47.04
2023-08-13T13:26:59.218Z,46.60
2023-08-13T13:29:26.993Z,47.96
2023-08-13T13:31:54.618Z,47.54
2023-08-13T13:34:22.311Z,46.28
2023-08-13T13:36:50.023Z,45.47
2023-08-13T13:39:18.013Z,46.06
2023-08-13T13:41:46.988Z,45.64
2023-08-13T13:44:15.293Z,46.69
2023-08-13T13:46:43.066Z,47.28
2023-08-13T13:49:10.652Z,47.60
2023-08-13T13:51:38.287Z,47.08
2023-08-13T13:54:07.593Z,47.63
2023-08-13T13:56:35.297Z,48.05
2023-08-13T13:59:05.181Z,48.18
2023-08-13T14:01:32.802Z,48.45
2023-08-13T14:04:00.850Z,48.52
2023-08-13T14:06:28.646Z,48.88
2023-08-13T14:08:56.347Z,48.30
2023-08-13T14:11:24.116Z,48.28
2023-08-13T14:13:51.733Z,48.65
2023-08-13T14:16:20.720Z,48.01
2023-08-13T14:18:48.401Z,48.20
2023-08-13T14:21:16.113Z,48.64
2023-08-13T14:23:43.756Z,47.98
2023-08-13T14:26:11.368Z,47.81
2023-08-13T14:28:39.166Z,47.68
2023-08-13T14:31:06.885Z,48.07
2023-08-13T14:33:35.924Z,48.19
2023-08-13T14:36:03.583Z,48.37
2023-08-13T14:38:31.236Z,48.85
2023-08-13T14:40:58.900Z,49.74
2023-08-13T14:43:27.714Z,49.48
2023-08-13T14:45:55.532Z,49.49
2023-08-13T14:48:23.393Z,49.24
2023-08-13T14:50:52.788Z,48.99
2023-08-13T14:53:20.407Z,48.96
2023-08-13T14:55:48.015Z,49.09
2023-08-13T14:58:15.649Z,49.42
2023-08-13T15:00:43.272Z,49.35
2023-08-13T15:03:11.000Z,49.49
2023-08-13T15:05:39.333Z,49.54
2023-08-13T15:08:08.418Z,49.73
2023-08-13T15:10:36.035Z,50.04
2023-08-13T15:13:03.808Z,50.07
2023-08-13T15:15:31.493Z,50.10
2023-08-13T15:17:59.236Z,50.13
2023-08-13T15:20:26.937Z,50.48
2023-08-13T15:22:54.583Z,50.73
2023-08-13T15:25:23.560Z,50.66
2023-08-13T15:27:51.178Z,50.74
2023-08-13T15:30:19.098Z,50.70
2023-08-13T15:32:46.997Z,50.78
2023-08-13T15:35:14.608Z,50.66
2023-08-13T15:37:42.284Z,51.86
2023-08-13T15:40:10.608Z,52.42
2023-08-13T15:42:39.675Z,52.17
2023-08-13T15:45:08.617Z,52.30
2023-08-13T15:47:36.271Z,52.22
2023-08-13T15:50:04.155Z,52.80
2023-08-13T15:52:31.828Z,52.77
2023-08-13T15:54:59.443Z,52.80
2023-08-13T15:57:27.137Z,52.96
2023-08-13T15:59:56.198Z,52.98
2023-08-13T16:02:23.873Z,53.41
2023-08-13T16:04:51.545Z,53.10
2023-08-13T16:07:19.239Z,53.45
2023-08-13T16:09:46.953Z,53.83
2023-08-13T16:12:14.919Z,54.30
2023-08-13T16:14:42.759Z,53.79
2023-08-13T16:17:11.876Z,54.47
2023-08-13T16:19:39.540Z,54.31
2023-08-13T16:22:07.324Z,54.81
2023-08-13T16:24:34.981Z,55.32
2023-08-13T16:27:04.726Z,55.43
2023-08-13T16:29:32.506Z,55.80
2023-08-13T16:32:00.443Z,55.81
2023-08-13T16:34:29.519Z,56.33
2023-08-13T16:36:57.215Z,56.45
2023-08-13T16:39:24.877Z,56.96
2023-08-13T16:41:52.504Z,56.53
2023-08-13T16:44:20.394Z,57.21
2023-08-13T16:46:48.165Z,57.76
2023-08-13T16:49:16.081Z,58.20
2023-08-13T16:51:45.337Z,58.34
2023-08-13T16:54:13.219Z,57.81
2023-08-13T16:56:40.880Z,57.88
2023-08-13T16:59:08.785Z,57.74
2023-08-13T17:01:36.651Z,58.14
2023-08-13T17:04:04.810Z,58.15
2023-08-13T17:06:32.743Z,58.35
2023-08-13T17:09:02.158Z,58.11
2023-08-13T17:11:29.792Z,58.06
2023-08-13T17:13:57.517Z,58.89
2023-08-13T17:16:25.149Z,59.24
2023-08-13T17:18:53.016Z,59.03
2023-08-13T17:21:20.647Z,59.27
2023-08-13T17:23:48.256Z,59.54
2023-08-13T17:26:17.221Z,59.68
2023-08-13T17:28:44.995Z,59.91
2023-08-13T17:31:12.714Z,59.84
2023-08-13T17:33:40.455Z,60.43
2023-08-13T17:36:09.071Z,60.41
2023-08-13T17:38:36.909Z,60.71
2023-08-13T17:41:04.526Z,60.75
2023-08-13T17:43:35.647Z,61.25
2023-08-13T17:46:03.360Z,61.78
2023-08-13T17:48:31.109Z,62.28
2023-08-13T17:50:59.323Z,62.56
2023-08-13T17:53:27.130Z,62.77
2023-08-13T17:55:54.874Z,63.04
2023-08-13T17:58:22.601Z,62.90
2023-08-13T18:00:51.833Z,63.00
2023-08-13T18:03:20.245Z,63.27
2023-08-13T18:05:47.940Z,63.46
2023-08-13T18:08:16.502Z,63.40
2023-08-13T18:10:44.331Z,64.23
2023-08-13T18:13:12.026Z,64.27
2023-08-13T18:15:39.807Z,64.51
2023-08-13T18:18:12.315Z,64.48
2023-08-13T18:20:39.980Z,64.46
2023-08-13T18:23:07.750Z,64.55
2023-08-13T18:25:36.219Z,65.07
2023-08-13T18:28:05.183Z,64.61
2023-08-13T18:30:33.052Z,64.43
2023-08-13T18:33:01.036Z,64.75
2023-08-13T18:35:30.317Z,64.52
2023-08-13T18:37:59.128Z,64.96
2023-08-13T18:40:28.950Z,65.21
2023-08-13T18:42:56.665Z,65.10
2023-08-13T18:45:29.496Z,64.61
2023-08-13T18:47:57.289Z,64.78
2023-08-13T18:50:25.011Z,65.13
2023-08-13T18:52:55.205Z,64.61
2023-08-13T18:55:22.940Z,64.75
2023-08-13T18:57:50.586Z,64.24
2023-08-13T19:00:18.334Z,64.22
2023-08-13T19:02:46.100Z,64.69
2023-08-13T19:05:14.037Z,64.00
2023-08-13T19:07:41.711Z,65.00
2023-08-13T19:10:11.053Z,64.56
2023-08-13T19:12:38.745Z,64.46
2023-08-13T19:15:07.156Z,64.90
2023-08-13T19:17:34.925Z,65.24
2023-08-13T19:20:02.686Z,65.20
2023-08-13T19:22:30.332Z,65.51
2023-08-13T19:24:57.926Z,65.41
2023-08-13T19:27:27.086Z,64.73
2023-08-13T19:29:54.678Z,65.64
2023-08-13T19:32:22.294Z,65.34
2023-08-13T19:34:50.256Z,65.17
2023-08-13T19:37:17.867Z,65.23
2023-08-13T19:39:45.494Z,65.74
2023-08-13T19:42:13.293Z,66.12
2023-08-13T19:44:42.230Z,66.10
2023-08-13T19:47:10.138Z,66.14
2023-08-13T19:49:37.765Z,66.43
2023-08-13T19:52:05.839Z,66.84
2023-08-13T19:54:33.485Z,66.58
2023-08-13T19:57:01.334Z,67.39
2023-08-13T19:59:28.978Z,67.33
2023-08-13T20:01:57.942Z,67.31
2023-08-13T20:04:25.625Z,68.10
2023-08-13T20:06:53.254Z,67.91
2023-08-13T20:09:20.932Z,68.19
2023-08-13T20:11:48.556Z,68.57
2023-08-13T20:14:16.220Z,68.70
2023-08-13T20:16:43.905Z,68.77
2023-08-13T20:19:12.963Z,68.92
2023-08-13T20:21:48.011Z,68.45
2023-08-13T20:24:15.881Z,68.66
2023-08-13T20:26:43.849Z,68.89
2023-08-13T20:29:13.941Z,68.96
2023-08-13T20:31:42.777Z,68.75
2023-08-13T20:34:10.872Z,68.51
2023-08-13T20:36:39.992Z,68.46
2023-08-13T20:39:08.355Z,68.88
2023-08-13T20:41:36.339Z,68.82
2023-08-13T20:44:05.172Z,68.72
2023-08-13T20:46:33.641Z,68.56
2023-08-13T20:49:05.097Z,69.45
2023-08-13T20:51:32.997Z,69.72
2023-08-13T20:54:02.022Z,69.93
2023-08-13T20:56:29.620Z,70.01
2023-08-13T20:58:57.312Z,69.94
2023-08-13T21:01:25.362Z,69.94
2023-08-13T21:03:53.071Z,70.27
2023-08-13T21:06:20.667Z,70.84
2023-08-13T21:08:48.270Z,70.78
2023-08-13T21:11:17.322Z,71.47
2023-08-13T21:13:45.038Z,71.50
2023-08-13T21:16:13.354Z,71.40
2023-08-13T21:18:40.974Z,71.54
2023-08-13T21:21:08.624Z,71.27
2023-08-13T21:23:36.217Z,71.13
2023-08-13T21:26:03.852Z,71.73
2023-08-13T21:28:32.785Z,71.96
2023-08-13T21:31:00.398Z,71.68
2023-08-13T21:33:28.047Z,71.04
2023-08-13T21:35:55.691Z,71.39
2023-08-13T21:38:23.296Z,71.48
2023-08-13T21:40:50.918Z,71.38
2023-08-13T21:43:18.520Z,71.10
2023-08-13T21:45:47.474Z,71.09
2023-08-13T21:48:15.146Z,71.05
2023-08-13T21:50:42.909Z,71.33
2023-08-13T21:53:10.482Z,71.53
2023-08-13T21:55:38.225Z,71.50
2023-08-13T21:58:05.818Z,71.27
2023-08-13T22:00:33.446Z,71.17
2023-08-13T22:03:02.738Z,70.97
2023-08-13T22:05:31.680Z,71.62
2023-08-13T22:07:59.374Z,71.64
2023-08-13T22:10:27.067Z,71.86
2023-08-13T22:12:54.682Z,71.47
2023-08-13T22:15:22.358Z,71.79
2023-08-13T22:17:50.148Z,72.19
2023-08-13T22:20:20.862Z,71.99
2023-08-13T22:22:50.601Z,72.36
2023-08-13T22:25:19.106Z,72.42
2023-08-13T22:27:46.743Z,72.89
2023-08-13T22:30:14.562Z,74.24
2023-08-13T22:32:42.240Z,73.88
2023-08-13T22:35:10.026Z,73.73
2023-08-13T22:37:38.972Z,73.90
2023-08-13T22:40:08.098Z,73.29
2023-08-13T22:42:35.738Z,73.27
2023-08-13T22:45:03.584Z,74.04
2023-08-13T22:47:31.440Z,74.57
2023-08-13T22:49:59.448Z,75.50
2023-08-13T22:52:27.309Z,76.20
2023-08-13T22:54:56.341Z,75.71
2023-08-13T22:57:24.378Z,75.85
2023-08-13T22:59:52.045Z,76.07
2023-08-13T23:02:20.080Z,75.81
2023-08-13T23:04:47.882Z,75.90
2023-08-13T23:07:15.973Z,75.09
2023-08-13T23:09:43.623Z,76.31
2023-08-13T23:12:12.571Z,77.55
2023-08-13T23:14:40.175Z,78.11
2023-08-13T23:17:07.924Z,79.23
2023-08-13T23:19:35.538Z,80.60
2023-08-13T23:22:03.200Z,80.02
2023-08-13T23:24:30.797Z,79.38
2023-08-13T23:26:58.406Z,79.55
2023-08-13T23:29:27.373Z,78.74
2023-08-13T23:31:55.040Z,78.31
2023-08-13T23:34:22.678Z,78.65
2023-08-13T23:36:50.354Z,78.10
2023-08-13T23:39:18.006Z,78.03
2023-08-13T23:41:48.379Z,77.92
2023-08-13T23:44:16.054Z,78.70
2023-08-13T23:46:45.018Z,79.35
2023-08-13T23:49:12.622Z,79.65
2023-08-13T23:51:40.293Z,80.29
2023-08-13T23:54:07.931Z,79.98
2023-08-13T23:56:35.572Z,80.00
2023-08-13T23:59:03.171Z,79.75
